createdAt,value
2023-04-28T00:00:55.741Z,100656.88
2023-04-28T00:03:22.338Z,100624.31
2023-04-28T00:05:49.595Z,100618.88
2023-04-28T00:08:16.220Z,100649.72
2023-04-28T00:10:42.761Z,100606.22
2023-04-28T00:13:09.237Z,100640.75
2023-04-28T00:15:35.858Z,100643.84
2023-04-28T00:18:02.370Z,100591.47
2023-04-28T00:20:28.888Z,100629.06
2023-04-28T00:22:55.301Z,100624.19
2023-04-28T00:25:21.791Z,100614.78
2023-04-28T00:27:48.255Z,100614.53
2023-04-28T00:30:15.236Z,100617.44
2023-04-28T00:32:41.878Z,100611.81
2023-04-28T00:35:08.793Z,100612.78
2023-04-28T00:37:38.995Z,100604.78
2023-04-28T00:40:06.168Z,100595.97
2023-04-28T00:42:32.665Z,100571.28
2023-04-28T00:45:04.391Z,100588.66
2023-04-28T00:47:31.394Z,100552.59
2023-04-28T00:49:58.263Z,100586.28
2023-04-28T00:52:24.920Z,100589.94
2023-04-28T00:54:51.366Z,100597.66
2023-04-28T00:57:17.904Z,100588.78
2023-04-28T00:59:44.361Z,100579.13
2023-04-28T01:02:17.255Z,100555.56
2023-04-28T01:04:46.096Z,100557.66
2023-04-28T01:07:13.014Z,100527.91
2023-04-28T01:09:39.939Z,100562.41
2023-04-28T01:12:06.877Z,100571.41
2023-04-28T01:14:34.017Z,100569.47
2023-04-28T01:17:01.898Z,100572.25
2023-04-28T01:19:29.711Z,100575.06
2023-04-28T01:21:56.748Z,100427.97
2023-04-28T01:24:23.450Z,100511.22
2023-04-28T01:26:50.552Z,100513.22
2023-04-28T01:29:17.151Z,100519.38
2023-04-28T01:31:43.665Z,100511.09
2023-04-28T01:34:10.314Z,100509.00
2023-04-28T01:36:37.795Z,100537.59
2023-04-28T01:39:05.002Z,100534.38
2023-04-28T01:41:34.356Z,100472.19
2023-04-28T01:44:01.004Z,100488.94
2023-04-28T01:46:27.680Z,100541.38
2023-04-28T01:48:54.340Z,100536.22
2023-04-28T01:51:20.997Z,100541.97
2023-04-28T01:53:47.572Z,100434.06
2023-04-28T01:56:14.146Z,100504.16
2023-04-28T01:58:41.589Z,100504.38
2023-04-28T02:01:08.180Z,100503.31
2023-04-28T02:03:34.962Z,100505.81
2023-04-28T02:06:01.760Z,100552.31
2023-04-28T02:08:28.569Z,100518.78
2023-04-28T02:10:55.187Z,100457.66
2023-04-28T02:13:21.681Z,100445.81
2023-04-28T02:15:48.263Z,100531.41
2023-04-28T02:18:15.052Z,100465.16
2023-04-28T02:20:41.967Z,100519.28
2023-04-28T02:23:08.795Z,100547.41
2023-04-28T02:25:36.035Z,100444.06
2023-04-28T02:28:03.304Z,100537.56
2023-04-28T02:30:29.838Z,100522.44
2023-04-28T02:32:56.607Z,100501.84
2023-04-28T02:35:23.431Z,100501.34
2023-04-28T02:37:50.375Z,100524.00
2023-04-28T02:40:17.809Z,100513.13
2023-04-28T02:42:44.470Z,100498.03
2023-04-28T02:45:11.965Z,100524.25
2023-04-28T02:47:38.644Z,100440.34
2023-04-28T02:50:06.654Z,100511.22
2023-04-28T02:52:33.359Z,100443.88
2023-04-28T02:55:00.059Z,100504.88
2023-04-28T02:57:26.763Z,100517.63
2023-04-28T02:59:53.525Z,100494.31
2023-04-28T03:02:22.592Z,100520.50
2023-04-28T03:04:49.523Z,100480.72
2023-04-28T03:07:16.057Z,100456.75
2023-04-28T03:09:42.660Z,100526.78
2023-04-28T03:12:09.196Z,100521.63
2023-04-28T03:14:36.804Z,100516.22
2023-04-28T03:17:03.686Z,100457.72
2023-04-28T03:19:30.756Z,100413.53
2023-04-28T03:21:57.333Z,100480.88
2023-04-28T03:24:26.031Z,100462.44
2023-04-28T03:26:52.740Z,100513.19
2023-04-28T03:29:19.621Z,100504.41
2023-04-28T03:31:46.214Z,100511.00
2023-04-28T03:34:13.379Z,100503.16
2023-04-28T03:36:39.942Z,100492.25
2023-04-28T03:39:06.525Z,100346.44
2023-04-28T03:41:33.149Z,100325.97
2023-04-28T03:43:59.761Z,100256.22
2023-04-28T03:46:26.477Z,100493.09
2023-04-28T03:48:53.635Z,100498.59
2023-04-28T03:51:20.901Z,100493.44
2023-04-28T03:53:47.600Z,100482.13
2023-04-28T03:56:14.284Z,100468.00
2023-04-28T03:58:41.200Z,100416.41
2023-04-28T04:01:07.718Z,100460.94
2023-04-28T04:03:34.456Z,100404.56
2023-04-28T04:06:01.961Z,100382.84
2023-04-28T04:08:28.604Z,100474.13
2023-04-28T04:10:56.005Z,100463.34
2023-04-28T04:13:22.884Z,100379.38
2023-04-28T04:15:50.887Z,100417.97
2023-04-28T04:18:18.887Z,100342.06
2023-04-28T04:20:46.008Z,100428.72
2023-04-28T04:23:12.608Z,100422.28
2023-04-28T04:25:39.506Z,100375.28
2023-04-28T04:28:06.171Z,100445.63
2023-04-28T04:30:33.449Z,100444.69
2023-04-28T04:33:00.056Z,100437.84
2023-04-28T04:35:26.910Z,100391.97
2023-04-28T04:37:53.615Z,100432.81
2023-04-28T04:40:20.351Z,100394.19
2023-04-28T04:42:46.878Z,100341.28
2023-04-28T04:45:13.432Z,100342.75
2023-04-28T04:47:40.754Z,100394.34
2023-04-28T04:50:08.068Z,100386.53
2023-04-28T04:52:34.732Z,100368.88
2023-04-28T04:55:01.445Z,100416.75
2023-04-28T04:57:28.042Z,100406.81
2023-04-28T04:59:54.622Z,100387.63
2023-04-28T05:02:21.202Z,100413.75
2023-04-28T05:04:47.833Z,100302.59
2023-04-28T05:07:14.490Z,100380.06
2023-04-28T05:09:41.125Z,100416.03
2023-04-28T05:12:08.117Z,100354.63
2023-04-28T05:14:35.019Z,100414.50
2023-04-28T05:17:01.767Z,100337.88
2023-04-28T05:19:28.417Z,100392.34
2023-04-28T05:21:55.154Z,100346.25
2023-04-28T05:24:23.756Z,100413.50
2023-04-28T05:26:51.678Z,100387.63
2023-04-28T05:29:18.352Z,100424.97
2023-04-28T05:31:44.911Z,100345.72
2023-04-28T05:34:11.485Z,100379.34
2023-04-28T05:36:38.377Z,100368.66
2023-04-28T05:39:04.982Z,100425.91
2023-04-28T05:41:31.690Z,100339.81
2023-04-28T05:43:58.290Z,100424.25
2023-04-28T05:46:30.611Z,100420.38
2023-04-28T05:48:57.930Z,100415.88
2023-04-28T05:51:24.541Z,100397.25
2023-04-28T05:53:51.116Z,100391.25
2023-04-28T05:56:18.214Z,100394.47
2023-04-28T05:58:45.337Z,100387.25
2023-04-28T06:01:11.971Z,100371.78
2023-04-28T06:03:38.862Z,100353.44
2023-04-28T06:06:09.771Z,100263.22
2023-04-28T06:08:37.113Z,100344.50
2023-04-28T06:11:03.956Z,100383.50
2023-04-28T06:13:30.480Z,100334.22
2023-04-28T06:15:57.161Z,100359.72
2023-04-28T06:18:24.338Z,100324.19
2023-04-28T06:20:51.516Z,100224.38
2023-04-28T06:23:18.251Z,100375.41
2023-04-28T06:25:44.942Z,100303.53
2023-04-28T06:28:13.345Z,100280.69
2023-04-28T06:30:39.918Z,100327.63
2023-04-28T06:33:06.658Z,100338.97
2023-04-28T06:35:38.997Z,100356.91
2023-04-28T06:38:06.935Z,100297.81
2023-04-28T06:40:33.478Z,100320.69
2023-04-28T06:42:59.988Z,100330.03
2023-04-28T06:45:26.623Z,100244.72
2023-04-28T06:47:55.860Z,100301.56
2023-04-28T06:50:23.954Z,100375.28
2023-04-28T06:52:50.735Z,100316.00
2023-04-28T06:55:17.602Z,100291.97
2023-04-28T07:00:11.575Z,100358.72
2023-04-28T07:02:38.421Z,100296.97
2023-04-28T07:05:05.484Z,100269.63
2023-04-28T07:07:32.610Z,100349.28
2023-04-28T07:10:00.545Z,100293.59
2023-04-28T07:12:27.400Z,100278.09
2023-04-28T07:14:54.023Z,100299.81
2023-04-28T07:17:20.534Z,100343.63
2023-04-28T07:19:47.342Z,100317.69
2023-04-28T07:22:13.908Z,100258.13
2023-04-28T07:24:40.588Z,100282.53
2023-04-28T07:27:07.189Z,100281.00
2023-04-28T07:29:35.146Z,100319.84
2023-04-28T07:32:04.158Z,100204.38
2023-04-28T07:34:31.851Z,100233.03
2023-04-28T07:36:59.588Z,100257.53
2023-04-28T07:39:26.255Z,100180.09
2023-04-28T07:41:52.958Z,100277.59
2023-04-28T07:44:20.714Z,100312.91
2023-04-28T07:46:47.418Z,100339.38
2023-04-28T07:49:14.348Z,100349.19
2023-04-28T07:51:40.902Z,100291.75
2023-04-28T07:54:07.514Z,100328.81
2023-04-28T07:56:35.163Z,100275.06
2023-04-28T07:59:01.821Z,100292.97
2023-04-28T08:01:28.408Z,100334.69
2023-04-28T08:03:55.111Z,100335.16
2023-04-28T08:06:22.212Z,100271.88
2023-04-28T08:08:49.144Z,100266.84
2023-04-28T08:11:15.853Z,100311.03
2023-04-28T08:13:42.341Z,100312.97
2023-04-28T08:16:09.033Z,100309.56
2023-04-28T08:18:35.686Z,100272.84
2023-04-28T08:21:02.331Z,100325.75
2023-04-28T08:23:30.748Z,100253.75
2023-04-28T08:25:57.915Z,100292.78
2023-04-28T08:28:24.688Z,100311.00
2023-04-28T08:30:51.414Z,100274.34
2023-04-28T08:33:18.181Z,100292.91
2023-04-28T08:35:45.070Z,100324.28
2023-04-28T08:38:14.134Z,100319.75
2023-04-28T08:40:42.836Z,100345.97
2023-04-28T08:43:10.705Z,100286.47
2023-04-28T08:45:43.007Z,100344.22
2023-04-28T08:48:20.660Z,100297.41
2023-04-28T08:50:52.934Z,100294.75
2023-04-28T08:53:26.129Z,100290.66
2023-04-28T08:55:56.435Z,100332.75
2023-04-28T08:58:27.319Z,100331.53
2023-04-28T09:00:54.570Z,100245.84
2023-04-28T09:03:21.497Z,100304.66
2023-04-28T09:05:49.093Z,100309.16
2023-04-28T09:08:15.787Z,100286.47
2023-04-28T09:10:42.506Z,100287.94
2023-04-28T09:13:09.246Z,100256.56
2023-04-28T09:15:38.201Z,100306.88
2023-04-28T09:18:06.405Z,100277.25
2023-04-28T09:20:34.703Z,100285.81
2023-04-28T09:23:21.633Z,100279.19
2023-04-28T09:26:07.520Z,100292.19
2023-04-28T09:28:36.314Z,100286.09
2023-04-28T09:31:04.011Z,100251.41
2023-04-28T09:33:30.953Z,100261.81
2023-04-28T09:35:57.609Z,100283.41
2023-04-28T09:38:25.092Z,100258.81
2023-04-28T09:40:53.818Z,100273.75
2023-04-28T09:43:24.604Z,100189.25
2023-04-28T09:45:51.846Z,100224.16
2023-04-28T09:48:26.919Z,100273.41
2023-04-28T09:50:55.379Z,100276.41
2023-04-28T09:53:25.905Z,100267.84
2023-04-28T09:55:54.448Z,100253.06
2023-04-28T09:58:21.945Z,100226.44
2023-04-28T10:00:57.257Z,100249.50
2023-04-28T10:03:31.750Z,100073.47
2023-04-28T10:05:59.201Z,100145.78
2023-04-28T10:08:27.349Z,100239.88
2023-04-28T10:10:54.849Z,100246.81
2023-04-28T10:13:22.862Z,100278.25
2023-04-28T10:15:50.392Z,100220.47
2023-04-28T10:18:18.519Z,100234.78
2023-04-28T10:20:48.483Z,100243.41
2023-04-28T10:23:48.018Z,100266.31
2023-04-28T10:26:18.366Z,100193.38
2023-04-28T10:28:49.824Z,100219.56
2023-04-28T10:31:21.449Z,100201.16
2023-04-28T10:33:48.945Z,100262.56
2023-04-28T10:36:52.893Z,100236.56
2023-04-28T10:39:20.002Z,100214.13
2023-04-28T10:41:47.879Z,100257.50
2023-04-28T10:44:35.731Z,100253.91
2023-04-28T10:47:03.946Z,99931.72
2023-04-28T10:49:58.833Z,100255.09
2023-04-28T10:52:35.334Z,100251.97
2023-04-28T10:55:33.195Z,100244.44
2023-04-28T10:58:15.178Z,100228.03
2023-04-28T11:00:43.060Z,100217.88
2023-04-28T11:03:10.085Z,100246.34
2023-04-28T11:05:37.109Z,100206.16
2023-04-28T11:08:18.973Z,100244.75
2023-04-28T11:11:10.718Z,100243.91
2023-04-28T11:13:37.583Z,100252.22
2023-04-28T11:16:04.690Z,100246.84
2023-04-28T11:18:55.162Z,100186.13
2023-04-28T11:21:23.717Z,100210.28
2023-04-28T11:23:51.639Z,100228.81
2023-04-28T11:26:19.418Z,100223.28
2023-04-28T11:28:51.556Z,100212.63
2023-04-28T11:31:21.234Z,100130.81
2023-04-28T11:33:57.369Z,100218.31
2023-04-28T11:36:33.595Z,100199.19
2023-04-28T11:39:02.617Z,100156.28
2023-04-28T11:41:29.521Z,100246.41
2023-04-28T11:43:56.384Z,100161.91
2023-04-28T11:46:25.110Z,100196.91
2023-04-28T11:49:02.991Z,100249.66
2023-04-28T11:51:34.092Z,100254.09
2023-04-28T11:54:01.980Z,100206.25
2023-04-28T11:56:29.228Z,100247.72
2023-04-28T11:59:09.577Z,100232.16
2023-04-28T12:02:05.208Z,100238.63
2023-04-28T12:04:40.327Z,100255.19
2023-04-28T12:07:10.431Z,100254.19
2023-04-28T12:10:01.278Z,100247.91
2023-04-28T12:12:40.024Z,100212.47
2023-04-28T12:15:08.450Z,100253.00
2023-04-28T12:17:37.841Z,100259.72
2023-04-28T12:20:06.966Z,100262.44
2023-04-28T12:22:49.602Z,100269.34
2023-04-28T12:25:19.323Z,100255.09
2023-04-28T12:28:06.008Z,100243.50
2023-04-28T12:30:42.456Z,100231.47
2023-04-28T12:33:29.715Z,100236.13
2023-04-28T12:35:57.537Z,100257.78
2023-04-28T12:38:24.738Z,100238.38
2023-04-28T12:40:51.719Z,100237.34
2023-04-28T12:43:18.235Z,100201.00
2023-04-28T12:45:44.965Z,100204.88
2023-04-28T12:48:11.579Z,100123.44
2023-04-28T12:50:38.138Z,100189.78
2023-04-28T12:53:05.179Z,100216.09
2023-04-28T12:55:31.963Z,100254.47
2023-04-28T12:57:59.475Z,100276.88
2023-04-28T13:00:26.427Z,100251.63
2023-04-28T13:02:53.422Z,100229.78
2023-04-28T13:05:20.081Z,100264.16
2023-04-28T13:07:47.483Z,100254.63
2023-04-28T13:10:14.030Z,100206.69
2023-04-28T13:12:41.350Z,100228.50
2023-04-28T13:15:08.602Z,100264.16
2023-04-28T13:17:35.663Z,100234.00
2023-04-28T13:20:05.232Z,100245.69
2023-04-28T13:22:32.392Z,100205.41
2023-04-28T13:24:59.248Z,100258.28
2023-04-28T13:27:25.933Z,100212.16
2023-04-28T13:29:52.838Z,100253.56
2023-04-28T13:32:19.730Z,100253.91
2023-04-28T13:34:47.048Z,100221.19
2023-04-28T13:37:13.983Z,100149.19
2023-04-28T13:39:40.895Z,100178.59
2023-04-28T13:42:07.650Z,100207.03
2023-04-28T13:44:34.918Z,100144.66
2023-04-28T13:47:01.557Z,100204.91
2023-04-28T13:49:28.822Z,100203.59
2023-04-28T13:51:56.297Z,100094.59
2023-04-28T13:54:23.032Z,100207.13
2023-04-28T13:56:49.631Z,100166.00
2023-04-28T13:59:16.190Z,100203.94
2023-04-28T14:01:42.963Z,100087.81
2023-04-28T14:04:09.724Z,100147.81
2023-04-28T14:06:37.263Z,100167.19
2023-04-28T14:09:04.072Z,100212.22
2023-04-28T14:11:31.088Z,100202.66
2023-04-28T14:13:57.647Z,100181.13
2023-04-28T14:16:24.581Z,100170.31
2023-04-28T14:18:51.806Z,100122.44
2023-04-28T14:21:18.358Z,100161.16
2023-04-28T14:23:44.984Z,100144.34
2023-04-28T14:26:11.736Z,100157.75
2023-04-28T14:28:38.592Z,100151.41
2023-04-28T14:31:07.319Z,100131.53
2023-04-28T14:33:34.293Z,100185.16
2023-04-28T14:36:02.404Z,100177.63
2023-04-28T14:38:30.591Z,100159.25
2023-04-28T14:40:57.676Z,100173.56
2023-04-28T14:43:24.756Z,100105.25
2023-04-28T14:45:51.953Z,100171.41
2023-04-28T14:48:18.793Z,100131.69
2023-04-28T14:50:46.193Z,100150.81
2023-04-28T14:53:12.879Z,100169.84
2023-04-28T14:55:39.527Z,100154.16
2023-04-28T14:58:06.091Z,100138.09
2023-04-28T15:00:32.624Z,100156.81
2023-04-28T15:02:59.417Z,100166.94
2023-04-28T15:05:26.286Z,100156.66
2023-04-28T15:07:52.974Z,100157.25
2023-04-28T15:10:19.637Z,100113.78
2023-04-28T15:12:48.350Z,100149.69
2023-04-28T15:15:14.920Z,100120.38
2023-04-28T15:17:41.476Z,100130.38
2023-04-28T15:20:08.377Z,100156.53
2023-04-28T15:22:36.450Z,100147.41
2023-04-28T15:25:03.368Z,100136.63
2023-04-28T15:27:29.891Z,100142.41
2023-04-28T15:29:56.466Z,100161.91
2023-04-28T15:32:23.487Z,100156.84
2023-04-28T15:34:50.740Z,100133.44
2023-04-28T15:37:43.404Z,100157.81
2023-04-28T15:40:12.227Z,100133.13
2023-04-28T15:42:49.483Z,100160.13
2023-04-28T15:45:16.834Z,100153.88
2023-04-28T15:47:43.989Z,100163.72
2023-04-28T15:50:11.486Z,100100.81
2023-04-28T15:52:40.642Z,100162.72
2023-04-28T15:55:08.491Z,100144.25
2023-04-28T15:57:36.615Z,100175.88
2023-04-28T16:00:03.480Z,100149.72
2023-04-28T16:02:32.445Z,100126.59
2023-04-28T16:05:00.092Z,100164.88
2023-04-28T16:07:27.230Z,100158.81
2023-04-28T16:09:54.307Z,100097.03
2023-04-28T16:12:21.233Z,100156.47
2023-04-28T16:14:51.015Z,100179.81
2023-04-28T16:17:17.869Z,100157.44
2023-04-28T16:19:44.784Z,100188.00
2023-04-28T16:22:11.546Z,100185.69
2023-04-28T16:24:42.572Z,100182.91
2023-04-28T16:27:12.908Z,100179.84
2023-04-28T16:29:39.564Z,100212.97
2023-04-28T16:32:06.738Z,100217.69
2023-04-28T16:34:33.402Z,100150.75
2023-04-28T16:37:00.418Z,100219.97
2023-04-28T16:39:27.161Z,100198.41
2023-04-28T16:41:53.659Z,100155.41
2023-04-28T16:44:20.488Z,100132.91
2023-04-28T16:46:47.815Z,100175.06
2023-04-28T16:49:14.386Z,100203.59
2023-04-28T16:51:41.076Z,100230.00
2023-04-28T16:54:07.728Z,100224.16
2023-04-28T16:56:38.880Z,100219.88
2023-04-28T16:59:05.496Z,100164.75
2023-04-28T17:01:32.018Z,100141.66
2023-04-28T17:03:58.919Z,100245.06
2023-04-28T17:06:26.142Z,100231.03
2023-04-28T17:08:52.675Z,100209.16
2023-04-28T17:11:19.319Z,100222.69
2023-04-28T17:13:47.067Z,100259.97
2023-04-28T17:16:13.761Z,100208.09
2023-04-28T17:18:41.331Z,100265.97
2023-04-28T17:21:07.988Z,100204.56
2023-04-28T17:23:34.819Z,100236.63
2023-04-28T17:26:03.318Z,100265.06
2023-04-28T17:28:29.957Z,100267.47
2023-04-28T17:30:56.533Z,100260.41
2023-04-28T17:33:23.343Z,100237.97
2023-04-28T17:35:50.098Z,100228.59
2023-04-28T17:38:17.339Z,100258.78
2023-04-28T17:40:48.560Z,100235.66
2023-04-28T17:43:20.261Z,100238.66
2023-04-28T17:45:46.874Z,100259.41
2023-04-28T17:48:13.567Z,100273.63
2023-04-28T17:50:40.193Z,100281.53
2023-04-28T17:53:06.773Z,100285.44
2023-04-28T17:55:33.473Z,100269.69
2023-04-28T17:57:59.990Z,100247.25
2023-04-28T18:00:26.711Z,100270.72
2023-04-28T18:02:55.092Z,100253.09
2023-04-28T18:05:24.242Z,100284.22
2023-04-28T18:07:50.946Z,100252.44
2023-04-28T18:10:18.086Z,100252.13
2023-04-28T18:12:45.069Z,100294.56
2023-04-28T18:15:12.250Z,100327.41
2023-04-28T18:17:38.875Z,100319.78
2023-04-28T18:20:07.023Z,100321.00
2023-04-28T18:22:33.751Z,100271.81
2023-04-28T18:25:00.663Z,100266.84
2023-04-28T18:27:27.203Z,100275.59
2023-04-28T18:29:54.192Z,100286.41
2023-04-28T18:32:20.775Z,100311.47
2023-04-28T18:34:47.606Z,100308.47
2023-04-28T18:37:14.146Z,100331.13
2023-04-28T18:39:41.206Z,100339.63
2023-04-28T18:42:07.769Z,100334.84
2023-04-28T18:44:34.731Z,100289.88
2023-04-28T18:47:01.329Z,100310.56
2023-04-28T18:49:27.847Z,100352.72
2023-04-28T18:51:54.482Z,100348.09
2023-04-28T18:54:21.410Z,100346.31
2023-04-28T18:56:48.085Z,100300.72
2023-04-28T18:59:14.759Z,100295.81
2023-04-28T19:01:41.366Z,100313.72
2023-04-28T19:04:08.345Z,100336.31
2023-04-28T19:06:36.183Z,100354.41
2023-04-28T19:09:02.998Z,100361.72
2023-04-28T19:11:30.451Z,100268.84
2023-04-28T19:13:57.972Z,100335.84
2023-04-28T19:16:24.899Z,100368.66
2023-04-28T19:18:52.085Z,100302.56
2023-04-28T19:21:19.009Z,100303.44
2023-04-28T19:23:45.587Z,100366.13
2023-04-28T19:26:13.335Z,100330.19
2023-04-28T19:28:39.950Z,100338.25
2023-04-28T19:31:08.184Z,100343.44
2023-04-28T19:33:34.848Z,100334.06
2023-04-28T19:36:01.625Z,100386.94
2023-04-28T19:38:28.609Z,100383.47
2023-04-28T19:41:01.067Z,100387.16
2023-04-28T19:43:28.122Z,100356.66
2023-04-28T19:45:54.683Z,100334.66
2023-04-28T19:48:21.552Z,100392.63
2023-04-28T19:50:48.169Z,100356.13
2023-04-28T19:53:14.928Z,100367.25
2023-04-28T19:55:41.536Z,100348.22
2023-04-28T19:58:10.059Z,100404.50
2023-04-28T20:00:36.888Z,100372.19
2023-04-28T20:03:04.028Z,100349.06
2023-04-28T20:05:31.311Z,100384.19
2023-04-28T20:07:58.020Z,100284.41
2023-04-28T20:10:24.941Z,100374.13
2023-04-28T20:12:51.653Z,100370.19
2023-04-28T20:15:18.665Z,100385.66
2023-04-28T20:17:45.907Z,100369.06
2023-04-28T20:20:13.291Z,100385.16
2023-04-28T20:22:41.014Z,100356.50
2023-04-28T20:25:10.277Z,100333.47
2023-04-28T20:27:36.964Z,100380.88
2023-04-28T20:30:04.143Z,100375.22
2023-04-28T20:32:31.083Z,100398.59
2023-04-28T20:34:57.863Z,100375.19
2023-04-28T20:37:26.309Z,100338.31
2023-04-28T20:39:53.201Z,100347.81
2023-04-28T20:42:20.004Z,100372.22
2023-04-28T20:44:46.615Z,100383.16
2023-04-28T20:47:13.551Z,100358.84
2023-04-28T20:49:40.461Z,100368.13
2023-04-28T20:52:07.025Z,100371.78
2023-04-28T20:54:35.752Z,100390.72
2023-04-28T20:57:04.429Z,100331.63
2023-04-28T20:59:32.599Z,100390.03
2023-04-28T21:02:00.153Z,100341.47
2023-04-28T21:04:28.401Z,100380.56
2023-04-28T21:06:55.618Z,100389.41
2023-04-28T21:09:25.033Z,100382.25
2023-04-28T21:11:52.571Z,100341.34
2023-04-28T21:14:19.392Z,100367.91
2023-04-28T21:16:46.216Z,100369.75
2023-04-28T21:19:12.866Z,100366.91
2023-04-28T21:21:39.627Z,100353.50
2023-04-28T21:24:06.252Z,100360.59
2023-04-28T21:26:33.126Z,100376.38
2023-04-28T21:28:59.894Z,100376.28
2023-04-28T21:31:26.569Z,100378.03
2023-04-28T21:33:53.403Z,100362.09
2023-04-28T21:36:20.043Z,100356.31
2023-04-28T21:38:46.652Z,100333.06
2023-04-28T21:41:13.354Z,100392.28
2023-04-28T21:43:40.533Z,100356.50
2023-04-28T21:46:07.150Z,100335.09
2023-04-28T21:48:33.768Z,100356.94
2023-04-28T21:51:01.337Z,100326.53
2023-04-28T21:53:28.742Z,100327.19
2023-04-28T21:55:55.536Z,100378.34
2023-04-28T21:58:22.316Z,100318.50
2023-04-28T22:00:49.099Z,100329.69
2023-04-28T22:03:16.737Z,100388.06
2023-04-28T22:05:46.785Z,100386.06
2023-04-28T22:08:13.852Z,100379.81
2023-04-28T22:10:40.614Z,100386.13
2023-04-28T22:13:09.045Z,100347.72
2023-04-28T22:15:35.722Z,100386.41
2023-04-28T22:18:04.246Z,100335.75
2023-04-28T22:20:32.072Z,100361.16
2023-04-28T22:22:58.670Z,100384.91
2023-04-28T22:25:25.272Z,100382.03
2023-04-28T22:27:51.874Z,100371.13
2023-04-28T22:30:18.512Z,100398.66
2023-04-28T22:32:47.033Z,100403.06
2023-04-28T22:35:13.987Z,100373.00
2023-04-28T22:37:40.541Z,100383.72
2023-04-28T22:40:08.431Z,100402.81
2023-04-28T22:42:39.692Z,100382.66
2023-04-28T22:45:06.872Z,100406.16
2023-04-28T22:47:34.636Z,100362.00
2023-04-28T22:50:03.989Z,100380.78
2023-04-28T22:52:30.517Z,100333.47
2023-04-28T22:54:57.483Z,100393.50
2023-04-28T22:57:24.192Z,100417.19
2023-04-28T22:59:51.125Z,100384.09
2023-04-28T23:02:18.001Z,100395.88
2023-04-28T23:04:44.824Z,100395.66
2023-04-28T23:07:11.443Z,100432.66
2023-04-28T23:09:38.121Z,100411.94
2023-04-28T23:12:05.148Z,100285.66
2023-04-28T23:14:32.361Z,100394.91
2023-04-28T23:17:00.020Z,100432.59
2023-04-28T23:19:26.553Z,100412.69
2023-04-28T23:21:54.466Z,100388.16
2023-04-28T23:24:21.087Z,100397.63
2023-04-28T23:26:47.824Z,100425.19
2023-04-28T23:29:14.589Z,100424.03
2023-04-28T23:31:41.283Z,100429.16
2023-04-28T23:34:08.379Z,100418.13
2023-04-28T23:36:35.571Z,100426.41
2023-04-28T23:39:02.471Z,100401.19
2023-04-28T23:41:29.239Z,100403.41
2023-04-28T23:43:56.676Z,100438.63
2023-04-28T23:46:23.485Z,100436.81
2023-04-28T23:48:50.722Z,100441.16
2023-04-28T23:51:17.265Z,100450.88
2023-04-28T23:53:44.155Z,100455.06
2023-04-28T23:56:10.688Z,100447.63
2023-04-28T23:58:38.573Z,100442.84
